Strona główna
METAR-TAF:

METAR-TAF

Lotnisko :

Río Cuarto, Argentyna

Szerokość geograficzna: 33-07S, Długość geograficzna: 064-14W, wysokość: 420 m

Aktualna obserwacja pogody

Raport powstał 48 minut temu, godzina 19:00 UTC
Wiatr 8 kt od północ
Temperatura 35°C
Wilgotność 22%
Ciśnienie 1002 hPa
Widzialność 10 km lub więcej
Mało chmury na wysokości 3000 ft

METAR: SAOC 181900Z 36008KT 9999 FEW030 35/10 Q1002

czas: 16:48 (19:48 UTC)


TAF: brakujący

Obserwacja i prognoza pogody dla ponad 4000 lotnisk (raport METAR i TAF).

Dostępne stacje oznaczono żółtymi i czerwonymi punktami na mapie.

Najedź kursorem aby zobaczyć nazwę stacji.

Kliknij aby zobaczyć obserwacje i prognozy pogody.

Aby zmienić mapę: kliknij na zielony przycisk z czarnym krzyżykiem, aby powiększyć; na zielony przycisk z myślnikiem, aby pomniejszyć; na zielone strzałki, aby przejść do map sąsiednich.


METAR-TAF: